Time;durP1;ratioP1;P1;durP2;ratioP2;P2;SDS_P1;SDS_P2;PMS_P1;PMS_P2;Temp;Humidity;BMP_temperature;BMP_pressure;BME280_temperature;BME280_humidity;BME280_pressure;Samples;Min_cycle;Max_cycle;Signal;HPM_P1;HPM_P2
2022/08/27 00:01:58;;;;;;;11.13;8.75;;;;;;;20.74;78.06;98556.63;5059498;28;20123;-79
2022/08/27 00:04:25;;;;;;;15.15;11.55;;;;;;;20.66;79.27;98583.75;5047793;28;20136;-79
2022/08/27 00:06:50;;;;;;;10.52;7.57;;;;;;;21.84;73.23;98562.00;5056969;28;20078;-79
2022/08/27 00:09:16;;;;;;;12.90;11.60;;;;;;;21.26;76.80;98565.47;5061759;28;22228;-79
2022/08/27 00:11:41;;;;;;;17.48;13.23;;;;;;;21.30;76.70;98569.13;5034092;28;20052;-79
2022/08/27 00:14:07;;;;;;;13.75;9.70;;;;;;;21.97;73.68;98580.03;5062931;28;20047;-79
2022/08/27 00:16:32;;;;;;;15.40;13.80;;;;;;;21.24;77.60;98580.47;5056838;28;20025;-79
2022/08/27 00:18:58;;;;;;;12.07;10.85;;;;;;;21.40;76.37;98587.78;5062582;28;20067;-80
2022/08/27 00:21:24;;;;;;;13.40;9.10;;;;;;;21.59;74.74;98560.22;5061463;28;20025;-79
2022/08/27 00:23:49;;;;;;;14.95;12.18;;;;;;;21.28;76.53;98568.66;5064098;28;20071;-80
2022/08/27 00:26:15;;;;;;;12.13;10.52;;;;;;;22.04;73.32;98584.94;5050424;28;20478;-79
2022/08/27 00:28:41;;;;;;;11.45;9.65;;;;;;;22.05;73.14;98586.53;5061317;28;20029;-80
2022/08/27 00:31:07;;;;;;;15.95;10.38;;;;;;;21.72;74.65;98591.78;5054949;28;20031;-80
2022/08/27 00:33:33;;;;;;;15.80;11.25;;;;;;;21.49;76.38;98582.31;5083009;28;20047;-81
2022/08/27 00:35:59;;;;;;;11.02;9.68;;;;;;;21.63;75.38;98580.97;5058023;28;20027;-80
2022/08/27 00:38:25;;;;;;;12.32;9.93;;;;;;;21.50;76.02;98581.97;5043968;28;20028;-80
2022/08/27 00:40:52;;;;;;;15.85;11.05;;;;;;;21.18;78.02;98581.78;5063686;28;20029;-80
2022/08/27 00:43:27;;;;;;;9.98;8.95;;;;;;;21.45;76.57;98590.31;5062126;28;20021;-80
2022/08/27 00:45:59;;;;;;;13.73;9.95;;;;;;;21.87;74.12;98587.75;5058283;28;20386;-80
2022/08/27 00:48:30;;;;;;;10.95;9.60;;;;;;;21.60;75.08;98584.31;5076547;28;20149;-80
2022/08/27 00:50:56;;;;;;;10.85;8.63;;;;;;;21.76;74.97;98587.28;5065138;28;20062;-80
2022/08/27 00:53:25;;;;;;;10.00;8.90;;;;;;;21.26;76.62;98592.63;5066345;28;20109;-80
2022/08/27 00:55:57;;;;;;;8.48;7.57;;;;;;;21.91;73.80;98592.19;5057882;28;20033;-80
2022/08/27 00:58:32;;;;;;;8.98;8.02;;;;;;;22.05;73.29;98587.31;5066500;28;20028;-80
2022/08/27 01:00:59;;;;;;;10.65;7.28;;;;;;;22.13;72.52;98582.94;5060122;28;21790;-80
2022/08/27 01:03:25;;;;;;;10.63;9.07;;;;;;;21.44;75.63;98579.78;5065475;28;20177;-80
2022/08/27 01:05:53;;;;;;;8.52;7.65;;;;;;;21.79;74.17;98592.09;5058121;28;20097;-80
2022/08/27 01:08:25;;;;;;;11.20;7.88;;;;;;;21.20;76.36;98585.78;5060508;28;20039;-80
2022/08/27 01:10:52;;;;;;;11.52;10.25;;;;;;;20.77;78.20;98583.09;5059959;28;20041;-80
2022/08/27 01:13:20;;;;;;;9.50;8.52;;;;;;;21.13;76.92;98606.38;5064891;28;20043;-80
2022/08/27 01:15:46;;;;;;;12.88;8.45;;;;;;;21.51;75.16;98602.56;5061470;28;20460;-81
2022/08/27 01:18:13;;;;;;;14.48;11.48;;;;;;;20.86;77.77;98605.59;5056955;28;20035;-80
2022/08/27 01:21:08;;;;;;;15.68;12.25;;;;;;;20.81;77.73;98583.28;5055506;28;20028;-80
2022/08/27 01:23:46;;;;;;;21.55;14.70;;;;;;;20.91;76.92;98583.72;5064235;28;20029;-80
2022/08/27 01:26:14;;;;;;;19.48;13.77;;;;;;;20.01;81.61;98610.94;5059835;28;20472;-81
2022/08/27 01:28:40;;;;;;;26.27;17.85;;;;;;;19.76;82.66;98606.25;5071966;28;20039;-81
2022/08/27 01:31:07;;;;;;;20.88;15.93;;;;;;;20.15;81.48;98614.31;5065085;28;20396;-81
2022/08/27 01:33:33;;;;;;;25.67;17.77;;;;;;;19.39;84.91;98612.94;5064835;28;20032;-80
2022/08/27 01:35:58;;;;;;;19.50;13.73;;;;;;;19.62;83.19;98608.25;5068326;28;20081;-79
2022/08/27 01:38:26;;;;;;;23.52;15.90;;;;;;;19.94;82.41;98616.03;5058402;28;20029;-80
2022/08/27 01:40:52;;;;;;;22.75;16.88;;;;;;;20.25;79.92;98613.25;5058781;28;20035;-80
2022/08/27 01:43:18;;;;;;;25.50;17.38;;;;;;;20.41;79.88;98622.50;5054917;28;20040;-80
2022/08/27 01:45:48;;;;;;;33.67;20.67;;;;;;;19.51;84.05;98620.47;5058831;28;20098;-80
2022/08/27 01:48:18;;;;;;;27.02;20.00;;;;;;;19.56;82.64;98598.69;5058190;28;20068;-81
2022/08/27 01:50:44;;;;;;;26.38;17.92;;;;;;;20.46;79.43;98615.03;5057699;28;20024;-80
2022/08/27 01:53:17;;;;;;;25.35;17.55;;;;;;;20.32;79.71;98600.00;5059047;28;20114;-81
2022/08/27 01:55:45;;;;;;;25.20;18.00;;;;;;;20.02;81.59;98624.19;5064562;28;20078;-80
2022/08/27 01:58:11;;;;;;;26.83;20.63;;;;;;;19.80;82.84;98634.31;5063645;28;20477;-81
2022/08/27 02:00:39;;;;;;;16.88;12.38;;;;;;;20.10;81.10;98631.53;5067627;28;20024;-81
2022/08/27 02:03:07;;;;;;;33.05;19.75;;;;;;;20.32;80.13;98617.09;5066529;28;20028;-80
2022/08/27 02:05:33;;;;;;;23.00;15.45;;;;;;;19.72;82.20;98608.00;5059227;28;20024;-80
2022/08/27 02:07:58;;;;;;;32.30;19.95;;;;;;;19.60;83.48;98610.47;5069424;28;20031;-80
2022/08/27 02:10:29;;;;;;;20.98;13.75;;;;;;;20.44;79.11;98617.28;5063469;28;20029;-79
2022/08/27 02:12:54;;;;;;;29.90;18.77;;;;;;;20.97;77.01;98625.03;5063253;28;20024;-80
2022/08/27 02:15:20;;;;;;;17.40;12.20;;;;;;;21.32;75.21;98613.03;5059701;28;20041;-80
2022/08/27 02:17:46;;;;;;;24.85;17.88;;;;;;;19.88;81.14;98614.56;5046681;28;20072;-80
2022/08/27 02:20:13;;;;;;;25.05;14.57;;;;;;;20.77;77.77;98621.06;5066453;28;20051;-80
2022/08/27 02:22:39;;;;;;;26.27;16.42;;;;;;;19.75;82.03;98627.09;5068166;28;20032;-80
2022/08/27 02:25:07;;;;;;;31.48;20.98;;;;;;;19.94;80.83;98622.22;5066504;28;20060;-80
2022/08/27 02:27:33;;;;;;;29.95;20.70;;;;;;;19.31;84.58;98625.28;5061751;28;20032;-80
2022/08/27 02:29:58;;;;;;;33.33;19.85;;;;;;;18.91;86.63;98612.00;5067194;28;20031;-80
2022/08/27 02:32:24;;;;;;;34.58;23.05;;;;;;;18.77;88.00;98619.38;5067020;28;20476;-80
2022/08/27 02:34:49;;;;;;;32.28;20.20;;;;;;;18.83;86.86;98610.81;5047597;28;20124;-80
2022/08/27 02:37:15;;;;;;;31.77;21.98;;;;;;;18.67;88.41;98629.31;5058062;28;20384;-80
2022/08/27 02:39:41;;;;;;;32.50;23.27;;;;;;;18.70;87.77;98620.59;5062929;28;20083;-80
2022/08/27 02:42:06;;;;;;;33.08;21.48;;;;;;;18.52;89.73;98629.66;5060840;28;20396;-79
2022/08/27 02:44:34;;;;;;;25.17;15.88;;;;;;;19.71;83.08;98617.22;5059186;28;20037;-80
2022/08/27 02:47:01;;;;;;;21.15;15.18;;;;;;;19.62;82.58;98597.44;5068048;28;20487;-80
2022/08/27 02:49:26;;;;;;;25.92;16.38;;;;;;;20.10;81.35;98633.44;5052498;28;20024;-80
2022/08/27 02:51:54;;;;;;;29.20;20.05;;;;;;;19.46;84.25;98634.16;5067359;28;20028;-79
2022/08/27 02:54:20;;;;;;;34.97;25.20;;;;;;;18.75;87.49;98616.16;5068050;28;20028;-79
2022/08/27 02:56:45;;;;;;;37.63;25.10;;;;;;;18.58;88.73;98631.16;5046260;28;20036;-80
2022/08/27 02:59:10;;;;;;;35.47;24.90;;;;;;;18.69;88.09;98626.31;5065011;28;20376;-79
2022/08/27 03:01:36;;;;;;;35.83;22.00;;;;;;;19.27;84.50;98618.91;5045551;28;20025;-79
2022/08/27 03:04:01;;;;;;;40.05;24.58;;;;;;;18.87;87.27;98622.63;5036911;28;20029;-79
2022/08/27 03:06:27;;;;;;;42.90;25.40;;;;;;;19.16;85.75;98625.69;5064609;28;20020;-80
2022/08/27 03:08:52;;;;;;;28.63;19.42;;;;;;;19.97;81.63;98618.09;5067750;28;20036;-80
2022/08/27 03:11:18;;;;;;;24.98;16.90;;;;;;;19.34;84.46;98613.88;5055931;28;20129;-80
2022/08/27 03:13:43;;;;;;;18.63;13.82;;;;;;;20.07;80.86;98615.09;5055282;28;20063;-80
2022/08/27 03:16:08;;;;;;;37.60;24.42;;;;;;;18.65;87.98;98614.53;5059085;28;20055;-80
2022/08/27 03:18:34;;;;;;;32.53;23.92;;;;;;;18.96;87.44;98623.47;5059057;28;20057;-80
2022/08/27 03:21:02;;;;;;;22.90;17.75;;;;;;;19.74;82.66;98619.31;5067697;28;20145;-80
2022/08/27 03:23:33;;;;;;;17.58;14.90;;;;;;;20.30;79.88;98626.63;5062246;28;20017;-79
2022/08/27 03:26:03;;;;;;;24.63;18.08;;;;;;;20.35;79.51;98624.59;5053185;28;20040;-80
2022/08/27 03:28:32;;;;;;;24.45;15.15;;;;;;;20.50;78.37;98602.44;5060428;28;21066;-80
2022/08/27 03:31:00;;;;;;;23.92;15.32;;;;;;;20.94;76.81;98625.72;5053413;28;20037;-80
2022/08/27 03:33:36;;;;;;;19.83;12.63;;;;;;;21.03;75.84;98603.97;5064054;28;20032;-80
2022/08/27 03:36:02;;;;;;;;;;;;;;;21.44;74.69;98628.66;5059969;28;20074;-80
2022/08/27 03:38:27;;;;;;;27.47;16.57;;;;;;;20.75;77.45;98617.13;5069111;28;19997;-80
2022/08/27 03:40:53;;;;;;;19.23;13.05;;;;;;;20.30;79.04;98627.44;5065568;28;20299;-80
2022/08/27 03:43:20;;;;;;;20.83;13.98;;;;;;;20.81;76.79;98622.06;5063195;28;20040;-81
2022/08/27 03:45:47;;;;;;;23.08;15.27;;;;;;;20.56;78.17;98633.69;5059910;28;20020;-80
2022/08/27 03:48:14;;;;;;;28.27;17.08;;;;;;;19.75;81.01;98620.88;5059436;28;20143;-80
2022/08/27 03:50:42;;;;;;;19.55;13.77;;;;;;;20.32;78.67;98627.94;5063036;28;20028;-80
2022/08/27 03:53:09;;;;;;;20.55;14.70;;;;;;;19.65;81.27;98610.34;5059752;28;20070;-79
2022/08/27 03:55:35;;;;;;;21.33;15.60;;;;;;;19.84;80.47;98621.72;5047090;28;20056;-80
2022/08/27 03:58:01;;;;;;;19.50;13.70;;;;;;;19.07;84.31;98615.91;5076286;28;20032;-79
2022/08/27 04:00:26;;;;;;;22.35;15.15;;;;;;;19.13;84.08;98620.09;5065283;28;20131;-80
2022/08/27 04:02:53;;;;;;;15.18;11.82;;;;;;;19.57;82.29;98620.03;5070620;28;20036;-80
2022/08/27 04:05:20;;;;;;;25.75;17.08;;;;;;;19.53;81.95;98623.69;5064497;28;20035;-80
2022/08/27 04:07:47;;;;;;;19.98;14.75;;;;;;;19.32;82.67;98602.53;5057463;28;20498;-80
2022/08/27 04:10:14;;;;;;;21.67;16.48;;;;;;;19.52;82.04;98619.38;5056449;28;20043;-80
2022/08/27 04:12:40;;;;;;;16.48;12.00;;;;;;;20.10;79.55;98620.69;5059657;28;20055;-80
2022/08/27 04:15:08;;;;;;;25.17;17.55;;;;;;;18.77;84.34;98598.53;5065648;28;20032;-80
2022/08/27 04:17:34;;;;;;;24.60;17.15;;;;;;;19.19;83.55;98619.66;5044304;28;20520;-80
2022/08/27 04:20:00;;;;;;;20.20;15.05;;;;;;;19.58;81.97;98618.94;5068896;28;20096;-80
2022/08/27 04:22:26;;;;;;;20.73;14.38;;;;;;;19.36;82.38;98618.97;5066171;28;20393;-80
2022/08/27 04:24:52;;;;;;;16.42;12.27;;;;;;;20.20;78.95;98616.88;5060622;28;20033;-80
2022/08/27 04:27:19;;;;;;;27.48;19.45;;;;;;;18.77;85.04;98617.47;5065902;28;20028;-80
2022/08/27 04:29:44;;;;;;;27.08;19.10;;;;;;;19.13;82.66;98606.56;5065550;28;20062;-80
2022/08/27 04:32:10;;;;;;;23.58;14.15;;;;;;;19.44;80.96;98600.06;5050229;28;20456;-80
2022/08/27 04:34:35;;;;;;;23.83;16.67;;;;;;;19.54;80.85;98609.84;5056282;28;20020;-80
2022/08/27 04:37:01;;;;;;;30.73;19.92;;;;;;;19.35;82.16;98633.63;5061198;28;20025;-80
2022/08/27 04:39:28;;;;;;;19.17;12.40;;;;;;;19.94;80.01;98633.06;5070176;28;20032;-80
2022/08/27 04:41:56;;;;;;;13.05;10.15;;;;;;;20.31;77.82;98626.34;5065647;28;20705;-80
2022/08/27 04:44:22;;;;;;;19.88;13.43;;;;;;;19.47;80.97;98627.63;5058615;28;20067;-80
2022/08/27 04:46:49;;;;;;;18.55;15.00;;;;;;;18.81;83.70;98623.84;5059441;28;20025;-80
2022/08/27 04:49:15;;;;;;;25.77;17.05;;;;;;;19.02;83.20;98641.22;5058249;28;20435;-80
2022/08/27 04:51:42;;;;;;;25.58;18.20;;;;;;;18.33;85.90;98644.41;5062192;28;20480;-79
2022/08/27 04:54:08;;;;;;;28.95;16.92;;;;;;;18.66;84.50;98632.31;5059565;28;20107;-79
2022/08/27 04:56:35;;;;;;;23.75;17.00;;;;;;;18.53;85.62;98641.28;5055769;28;20036;-81
2022/08/27 04:59:02;;;;;;;25.90;16.48;;;;;;;18.73;84.63;98632.72;5062616;28;20020;-80
2022/08/27 05:01:29;;;;;;;18.58;12.88;;;;;;;19.44;81.69;98637.16;5064277;28;20119;-80
2022/08/27 05:03:57;;;;;;;25.65;15.43;;;;;;;18.49;86.40;98643.00;5056700;28;20028;-80
2022/08/27 05:06:23;;;;;;;21.85;16.88;;;;;;;18.61;85.37;98625.13;5064757;28;20124;-80
2022/08/27 05:08:50;;;;;;;28.30;18.10;;;;;;;18.67;84.17;98598.78;5044309;28;20478;-81
2022/08/27 05:11:17;;;;;;;26.08;17.52;;;;;;;18.28;86.21;98631.00;5055678;28;20028;-80
2022/08/27 05:13:44;;;;;;;26.50;18.27;;;;;;;17.91;88.59;98645.53;5062006;28;20031;-80
2022/08/27 05:16:19;;;;;;;25.67;16.83;;;;;;;18.36;86.25;98638.41;5064537;28;20044;-80
2022/08/27 05:18:46;;;;;;;23.52;17.42;;;;;;;18.04;87.09;98630.44;5056216;28;20024;-80
2022/08/27 05:21:23;;;;;;;19.67;12.02;;;;;;;19.39;80.99;98626.47;5049232;28;20484;-80
2022/08/27 05:23:49;;;;;;;18.55;11.02;;;;;;;19.31;81.64;98643.44;5055520;28;20084;-81
2022/08/27 05:26:15;;;;;;;20.38;14.05;;;;;;;19.17;81.95;98637.31;5061202;28;20082;-80
2022/08/27 05:28:41;;;;;;;17.00;12.07;;;;;;;19.39;81.08;98651.66;5064619;28;20040;-80
2022/08/27 05:31:08;;;;;;;26.83;15.65;;;;;;;18.96;83.20;98650.53;5064714;28;20032;-80
2022/08/27 05:33:34;;;;;;;24.65;17.73;;;;;;;17.97;86.97;98642.44;5063597;28;20060;-80
2022/08/27 05:36:01;;;;;;;22.13;14.30;;;;;;;18.47;85.64;98647.91;5058038;28;20480;-80
2022/08/27 05:38:29;;;;;;;19.77;15.98;;;;;;;18.47;85.76;98647.91;5055433;28;20024;-80
2022/08/27 05:41:04;;;;;;;27.33;15.98;;;;;;;18.02;86.75;98644.25;5063806;28;20091;-81
2022/08/27 05:43:31;;;;;;;15.77;11.37;;;;;;;19.05;82.80;98659.50;5062851;28;20021;-80
2022/08/27 05:45:56;;;;;;;15.63;10.70;;;;;;;19.18;81.84;98645.13;5048147;28;20090;-80
2022/08/27 05:48:22;;;;;;;16.38;9.07;;;;;;;19.36;80.97;98646.84;5051695;28;20116;-80
2022/08/27 05:50:47;;;;;;;10.82;7.97;;;;;;;19.90;78.11;98652.97;5061482;28;20413;-80
2022/08/27 05:53:12;;;;;;;12.80;9.20;;;;;;;18.62;83.79;98658.38;5037790;28;20078;-80
2022/08/27 05:55:40;;;;;;;12.32;8.75;;;;;;;18.70;83.61;98655.75;5047150;28;20033;-80
2022/08/27 05:58:07;;;;;;;9.45;7.18;;;;;;;19.25;80.45;98653.59;5069330;28;20047;-80
2022/08/27 06:03:19;;;;;;;12.45;8.63;;;;;;;19.13;82.04;98664.16;5067873;28;20110;-80
2022/08/27 06:05:45;;;;;;;10.07;9.02;;;;;;;19.23;80.95;98642.28;5045389;28;20059;-80
2022/08/27 06:08:10;;;;;;;13.35;9.07;;;;;;;19.21;80.95;98655.31;5064620;28;20518;-80
2022/08/27 06:10:39;;;;;;;9.65;7.95;;;;;;;19.24;81.01;98659.31;5061736;28;20647;-80
2022/08/27 06:13:04;;;;;;;11.07;6.90;;;;;;;19.59;79.06;98655.72;5067437;28;20032;-80
2022/08/27 06:15:30;;;;;;;10.55;8.38;;;;;;;19.28;80.41;98666.53;5039860;28;20028;-79
2022/08/27 06:17:55;;;;;;;8.65;6.43;;;;;;;19.25;80.75;98664.41;5045110;28;20525;-80
2022/08/27 06:20:22;;;;;;;7.65;5.88;;;;;;;19.84;78.61;98667.78;5065031;28;20040;-80
2022/08/27 06:22:48;;;;;;;7.00;5.70;;;;;;;20.08;77.44;98674.41;5068294;28;20518;-79
2022/08/27 06:25:13;;;;;;;5.88;5.15;;;;;;;20.50;75.35;98659.38;5063301;28;20041;-80
2022/08/27 06:27:39;;;;;;;9.80;6.90;;;;;;;20.26;76.60;98669.84;5052373;28;20086;-79
2022/08/27 06:30:04;;;;;;;10.27;7.07;;;;;;;19.20;79.75;98661.84;5049985;28;20032;-80
2022/08/27 06:32:30;;;;;;;13.02;6.88;;;;;;;19.34;78.94;98653.66;5058389;28;20103;-80
2022/08/27 06:34:55;;;;;;;7.32;5.78;;;;;;;19.10;81.35;98681.03;5059510;28;20135;-79
2022/08/27 06:37:21;;;;;;;8.95;5.93;;;;;;;19.81;77.95;98657.59;5059476;28;20090;-80
2022/08/27 06:39:46;;;;;;;11.38;7.00;;;;;;;18.53;81.57;98665.59;5054019;28;20444;-79
2022/08/27 06:42:12;;;;;;;9.52;6.47;;;;;;;18.69;81.41;98661.47;5042181;28;20060;-80
2022/08/27 06:44:37;;;;;;;5.88;4.90;;;;;;;19.89;76.81;98665.75;5056886;28;20101;-80
2022/08/27 06:47:03;;;;;;;5.65;4.30;;;;;;;20.30;75.30;98657.25;5054257;28;20021;-80
2022/08/27 06:49:29;;;;;;;5.95;4.93;;;;;;;20.67;73.98;98681.09;5054272;28;20120;-80
2022/08/27 06:51:54;;;;;;;9.30;6.43;;;;;;;20.03;76.17;98660.97;5071041;28;20472;-81
2022/08/27 06:54:20;;;;;;;7.18;5.05;;;;;;;20.22;75.49;98662.66;5067280;28;20033;-79
2022/08/27 06:56:48;;;;;;;5.40;4.35;;;;;;;20.90;73.22;98684.44;5058619;28;20041;-80
2022/08/27 06:59:16;;;;;;;6.30;5.57;;;;;;;20.76;73.72;98689.22;5060004;28;20044;-80
2022/08/27 07:01:45;;;;;;;7.68;5.55;;;;;;;20.81;73.74;98699.94;5057785;28;20096;-79
2022/08/27 07:04:15;;;;;;;10.05;6.47;;;;;;;19.77;77.67;98687.19;5042610;28;20033;-80
2022/08/27 07:06:40;;;;;;;7.30;5.20;;;;;;;20.62;74.50;98700.22;5045322;28;20119;-80
2022/08/27 07:09:07;;;;;;;7.70;4.43;;;;;;;20.82;73.59;98687.94;5058478;28;20028;-79
2022/08/27 07:11:32;;;;;;;7.00;5.80;;;;;;;19.83;77.18;98690.56;5069064;28;20024;-79
2022/08/27 07:13:59;;;;;;;10.57;7.47;;;;;;;20.09;76.55;98707.72;5070937;28;20051;-79
2022/08/27 07:16:26;;;;;;;6.93;4.55;;;;;;;20.85;73.26;98700.88;5058133;28;20016;-80
2022/08/27 07:18:55;;;;;;;6.28;3.97;;;;;;;21.18;72.52;98703.94;5055042;28;20101;-79
2022/08/27 07:21:21;;;;;;;5.68;4.68;;;;;;;21.08;72.32;98693.41;5061476;28;20109;-80
2022/08/27 07:23:48;;;;;;;8.57;4.85;;;;;;;21.11;72.45;98709.84;5063816;28;20044;-79
2022/08/27 07:26:14;;;;;;;5.35;4.72;;;;;;;21.06;72.67;98692.91;5065709;28;20103;-79
2022/08/27 07:28:42;;;;;;;9.70;5.68;;;;;;;20.87;73.13;98715.72;5039137;28;20032;-80
2022/08/27 07:31:11;;;;;;;10.48;7.22;;;;;;;20.25;75.61;98708.13;5074604;28;20028;-80
2022/08/27 07:33:37;;;;;;;11.32;6.07;;;;;;;20.36;75.16;98696.66;5074712;28;20035;-80
2022/08/27 07:36:06;;;;;;;10.77;7.05;;;;;;;20.75;73.93;98710.13;5049408;28;20040;-79
2022/08/27 07:38:33;;;;;;;6.85;6.15;;;;;;;20.60;74.61;98709.78;5066818;28;20044;-79
2022/08/27 07:40:58;;;;;;;10.07;4.60;;;;;;;20.90;73.02;98698.78;5060857;28;20039;-80
2022/08/27 07:46:08;;;;;;;9.25;7.18;;;;;;;19.60;78.55;98722.31;5063471;28;20039;-79
2022/08/27 07:48:33;;;;;;;8.13;5.38;;;;;;;20.02;77.04;98707.38;5062831;28;20025;-79
2022/08/27 07:51:03;;;;;;;6.97;5.43;;;;;;;19.66;77.79;98701.31;5064933;28;20064;-79
2022/08/27 07:53:30;;;;;;;10.45;5.63;;;;;;;20.72;74.37;98721.63;5052180;28;20032;-79
2022/08/27 07:56:01;;;;;;;6.95;4.95;;;;;;;20.91;73.27;98715.88;5068798;28;20033;-79
2022/08/27 07:58:26;;;;;;;7.55;5.13;;;;;;;20.74;74.10;98724.00;5073618;28;20103;-79
2022/08/27 08:00:55;;;;;;;6.35;5.47;;;;;;;20.88;73.51;98720.03;5049658;28;20151;-79
2022/08/27 08:03:21;;;;;;;7.43;4.93;;;;;;;20.44;74.95;98719.50;5064664;28;20024;-79
2022/08/27 08:05:47;;;;;;;7.07;4.60;;;;;;;21.05;72.86;98723.91;5064336;28;20487;-79
2022/08/27 08:08:14;;;;;;;6.70;4.60;;;;;;;21.16;72.69;98730.59;5032351;28;20025;-79
2022/08/27 08:10:39;;;;;;;7.60;4.18;;;;;;;21.42;71.30;98715.09;5066640;28;20048;-79
2022/08/27 08:13:05;;;;;;;7.10;5.47;;;;;;;21.58;71.20;98732.47;5051320;28;20024;-80
2022/08/27 08:15:31;;;;;;;7.28;4.45;;;;;;;21.81;70.30;98730.34;5070828;28;20492;-80
2022/08/27 08:17:57;;;;;;;5.45;4.72;;;;;;;21.53;71.16;98732.66;5070979;28;20115;-79
2022/08/27 08:20:22;;;;;;;11.43;5.95;;;;;;;21.64;70.69;98739.34;5044877;28;20029;-79
2022/08/27 08:22:48;;;;;;;10.80;6.80;;;;;;;21.24;72.56;98733.31;5076652;28;20408;-79
2022/08/27 08:25:14;;;;;;;7.25;5.53;;;;;;;21.48;71.72;98738.25;5064868;28;20041;-79
2022/08/27 08:27:41;;;;;;;6.07;4.50;;;;;;;21.74;70.22;98736.25;5048222;28;20086;-79
2022/08/27 08:30:08;;;;;;;7.97;5.07;;;;;;;21.43;71.25;98727.53;5060418;28;20020;-79
2022/08/27 08:32:33;;;;;;;10.98;5.72;;;;;;;21.39;71.65;98740.97;5065373;28;20040;-79
2022/08/27 08:34:59;;;;;;;7.47;5.05;;;;;;;21.40;71.06;98731.72;5066863;28;20036;-80
2022/08/27 08:37:25;;;;;;;7.63;5.93;;;;;;;20.88;73.34;98736.31;5044154;28;20035;-80
2022/08/27 08:39:51;;;;;;;10.90;6.68;;;;;;;20.75;73.16;98687.66;5068904;28;20032;-79
2022/08/27 08:42:29;;;;;;;9.82;6.35;;;;;;;21.16;72.19;98736.03;5064941;28;20032;-79
2022/08/27 08:44:58;;;;;;;8.48;5.50;;;;;;;21.29;71.56;98727.72;5070050;28;20024;-79
2022/08/27 08:47:44;;;;;;;10.77;5.63;;;;;;;21.40;70.86;98725.47;5049327;28;20024;-79
2022/08/27 08:50:16;;;;;;;6.57;4.95;;;;;;;21.47;71.13;98739.38;5062660;28;20073;-79
2022/08/27 08:52:58;;;;;;;6.43;5.20;;;;;;;21.72;70.57;98735.00;5060296;28;20167;-79
2022/08/27 08:55:59;;;;;;;8.95;6.05;;;;;;;21.40;71.88;98729.00;5076917;28;20027;-79
2022/08/27 08:58:51;;;;;;;11.93;8.38;;;;;;;20.98;73.53;98731.69;5032195;28;20522;-79
2022/08/27 09:01:19;;;;;;;9.10;5.25;;;;;;;21.43;72.24;98716.66;5065475;28;20111;-79
2022/08/27 09:03:59;;;;;;;8.90;5.93;;;;;;;21.41;71.56;98708.06;5071084;28;20036;-79
2022/08/27 09:06:44;;;;;;;5.85;4.95;;;;;;;21.58;71.51;98721.59;5071407;28;20048;-79
2022/08/27 09:09:47;;;;;;;9.90;7.75;;;;;;;21.37;72.15;98720.69;5059362;28;20052;-79
2022/08/27 09:12:17;;;;;;;15.73;7.68;;;;;;;21.11;73.37;98730.75;5046306;28;20111;-79
2022/08/27 09:14:56;;;;;;;7.68;6.15;;;;;;;21.59;71.58;98729.44;5063479;28;20024;-79
2022/08/27 09:17:22;;;;;;;6.20;4.65;;;;;;;21.90;70.08;98718.34;5067364;28;20349;-79
2022/08/27 09:19:48;;;;;;;8.52;6.63;;;;;;;21.80;70.62;98718.66;5062360;28;20043;-79
2022/08/27 09:22:17;;;;;;;8.10;4.85;;;;;;;22.06;69.74;98729.50;5069689;28;20045;-79
2022/08/27 09:24:52;;;;;;;9.10;5.88;;;;;;;22.11;69.65;98730.09;5063551;28;20496;-79
2022/08/27 09:27:19;;;;;;;7.28;6.10;;;;;;;21.76;70.32;98725.88;5063460;28;20063;-79
2022/08/27 09:29:48;;;;;;;6.50;5.40;;;;;;;22.03;69.71;98727.41;5066418;28;20055;-79
2022/08/27 09:32:13;;;;;;;8.07;6.28;;;;;;;22.06;69.67;98711.22;5067113;28;20024;-79
2022/08/27 09:34:42;;;;;;;9.02;5.88;;;;;;;21.99;69.50;98715.59;5069202;28;20036;-79
2022/08/27 09:37:24;;;;;;;10.90;5.50;;;;;;;22.19;69.39;98728.47;5060754;28;20090;-79
2022/08/27 09:40:05;;;;;;;8.10;6.25;;;;;;;22.03;69.83;98724.69;5065457;28;20116;-79
2022/08/27 09:42:47;;;;;;;5.88;5.28;;;;;;;22.18;69.48;98733.09;5069390;28;20076;-79
2022/08/27 09:45:18;;;;;;;6.72;5.80;;;;;;;22.25;69.35;98738.84;5063792;28;20097;-79
2022/08/27 09:47:48;;;;;;;9.20;5.55;;;;;;;22.38;68.94;98735.09;5084186;28;20036;-79
2022/08/27 09:50:17;;;;;;;5.90;5.22;;;;;;;22.42;68.71;98739.84;5083297;28;20064;-79
2022/08/27 09:52:50;;;;;;;6.15;5.55;;;;;;;22.47;68.64;98747.84;5074247;28;20492;-79
2022/08/27 09:55:47;;;;;;;6.88;5.00;;;;;;;22.41;69.16;98741.00;5070006;28;20020;-79
2022/08/27 09:58:23;;;;;;;5.57;4.82;;;;;;;22.52;68.39;98748.44;5052437;28;20052;-79
2022/08/27 10:01:03;;;;;;;9.18;6.72;;;;;;;22.27;69.25;98735.78;5062287;28;20032;-79
2022/08/27 10:03:29;;;;;;;10.13;6.70;;;;;;;22.43;68.69;98727.88;5067320;28;20058;-79
2022/08/27 10:05:55;;;;;;;15.70;8.55;;;;;;;22.18;69.24;98724.94;5065154;28;20052;-79
2022/08/27 10:09:01;;;;;;;8.38;6.55;;;;;;;22.57;68.60;98734.66;5044073;28;20032;-79
2022/08/27 10:11:36;;;;;;;10.07;7.27;;;;;;;22.86;67.75;98742.81;5027731;28;20190;-79
2022/08/27 10:14:12;;;;;;;10.13;7.35;;;;;;;23.03;67.31;98731.00;5080204;28;20273;-79
2022/08/27 10:16:37;;;;;;;;;;;;;;;22.93;67.61;98734.13;5069735;28;20037;-79
2022/08/27 10:19:33;;;;;;;6.97;6.03;;;;;;;23.17;66.83;98733.47;5067623;28;19916;-79
2022/08/27 10:22:10;;;;;;;12.15;7.05;;;;;;;23.13;66.90;98722.41;5066183;28;20035;-79
2022/08/27 10:24:57;;;;;;;13.60;7.32;;;;;;;23.31;66.56;98726.59;5066395;28;20028;-79
2022/08/27 10:27:43;;;;;;;9.52;7.20;;;;;;;23.24;66.56;98725.56;5071948;28;20021;-79
2022/08/27 10:30:12;;;;;;;13.90;7.65;;;;;;;23.27;66.53;98719.41;5066372;28;20024;-79
2022/08/27 10:32:59;;;;;;;10.20;7.28;;;;;;;23.26;66.63;98724.09;5069752;28;20052;-79
2022/08/27 10:35:40;;;;;;;9.30;5.85;;;;;;;23.51;65.36;98727.72;5052614;28;20029;-79
2022/08/27 10:38:17;;;;;;;7.45;6.05;;;;;;;23.58;65.76;98730.69;5062342;28;20118;-79
2022/08/27 10:40:54;;;;;;;8.63;6.15;;;;;;;23.62;65.58;98721.50;5070965;28;20074;-79
2022/08/27 10:43:47;;;;;;;9.98;6.47;;;;;;;23.52;65.85;98724.69;5072866;28;20028;-79
2022/08/27 10:46:34;;;;;;;11.50;6.53;;;;;;;23.72;65.00;98723.03;5081340;28;20016;-79
2022/08/27 10:49:29;;;;;;;12.02;6.47;;;;;;;23.77;64.87;98729.03;5064478;28;20027;-79
2022/08/27 10:52:03;;;;;;;8.50;6.93;;;;;;;23.71;65.55;98730.41;5057146;28;20515;-79
2022/08/27 10:54:34;;;;;;;12.63;7.85;;;;;;;23.60;65.51;98725.69;5062504;28;20021;-79
2022/08/27 10:57:11;;;;;;;8.50;5.97;;;;;;;23.61;65.31;98741.72;5062902;28;20101;-79
2022/08/27 10:59:50;;;;;;;8.95;6.60;;;;;;;23.79;64.84;98740.41;5060957;28;20055;-80
2022/08/27 11:02:42;;;;;;;11.18;5.50;;;;;;;23.86;64.28;98728.94;5067168;28;20040;-80
2022/08/27 11:05:19;;;;;;;9.07;6.53;;;;;;;23.77;64.16;98737.22;5059727;28;20035;-80
2022/08/27 11:07:54;;;;;;;9.82;6.78;;;;;;;23.94;63.84;98732.72;5067213;28;20694;-80
2022/08/27 11:10:27;;;;;;;11.32;6.47;;;;;;;23.69;64.29;98724.50;5060434;28;20028;-80
2022/08/27 11:12:58;;;;;;;7.45;6.65;;;;;;;23.60;64.69;98712.88;5047801;28;20044;-80
2022/08/27 11:15:34;;;;;;;11.43;6.43;;;;;;;23.97;64.22;98735.56;5057995;28;20128;-79
2022/08/27 11:18:33;;;;;;;7.85;5.78;;;;;;;23.96;63.70;98730.44;5060447;28;20048;-80
2022/08/27 11:21:06;;;;;;;9.65;6.93;;;;;;;24.08;63.31;98735.94;5062697;28;20415;-79
2022/08/27 11:23:40;;;;;;;12.55;7.60;;;;;;;23.54;64.73;98735.22;5063155;28;20032;-79
2022/08/27 11:26:06;;;;;;;12.68;6.93;;;;;;;23.63;64.72;98725.81;5067145;28;20033;-79
2022/08/27 11:28:43;;;;;;;6.40;5.80;;;;;;;23.80;63.96;98722.94;5060250;28;20480;-79
2022/08/27 11:31:16;;;;;;;8.77;6.32;;;;;;;23.26;65.31;98735.00;5082923;28;20026;-79
2022/08/27 11:33:58;;;;;;;13.20;6.53;;;;;;;23.82;64.02;98730.75;5066307;28;20022;-79
2022/08/27 11:37:28;;;;;;;11.48;7.05;;;;;;;23.80;64.01;98727.56;5063069;28;20021;-80
2022/08/27 11:40:19;;;;;;;12.35;6.50;;;;;;;23.77;63.84;98736.41;4976240;28;20071;-80
2022/08/27 11:42:50;;;;;;;18.00;8.38;;;;;;;23.53;64.56;98720.00;4974847;28;20065;-81